createdAt,value
2018-04-16T00:01:25.769Z,94.40
2018-04-16T00:04:00.898Z,94.40
2018-04-16T00:06:36.300Z,94.40
2018-04-16T00:09:16.248Z,94.60
2018-04-16T00:11:51.489Z,94.70
2018-04-16T00:14:26.768Z,94.60
2018-04-16T00:17:01.953Z,94.90
2018-04-16T00:19:37.243Z,96.30
2018-04-16T00:22:12.349Z,96.20
2018-04-16T00:24:47.634Z,95.50
2018-04-16T00:27:22.872Z,95.80
2018-04-16T00:29:57.990Z,96.70
2018-04-16T00:32:38.673Z,98.20
2018-04-16T00:35:19.200Z,98.80
2018-04-16T00:37:59.969Z,99.90
2018-04-16T00:40:40.688Z,99.90
2018-04-16T00:43:22.099Z,99.90
2018-04-16T00:46:03.497Z,99.90
2018-04-16T00:48:44.321Z,99.90
2018-04-16T00:51:24.922Z,99.90
2018-04-16T00:54:23.798Z,99.90
2018-04-16T00:57:04.632Z,95.00
2018-04-16T00:59:45.185Z,94.60
2018-04-16T01:02:26.129Z,94.50
2018-04-16T01:05:07.709Z,99.90
2018-04-16T01:07:48.656Z,99.90
2018-04-16T01:10:29.414Z,99.90
2018-04-16T01:16:08.225Z,99.90
2018-04-16T01:18:49.070Z,99.90
2018-04-16T01:21:30.503Z,99.90
2018-04-16T01:27:10.181Z,99.90
2018-04-16T01:29:50.961Z,99.90
2018-04-16T01:32:31.822Z,99.90
2018-04-16T01:35:12.698Z,99.90
2018-04-16T01:37:53.236Z,99.90
2018-04-16T01:40:36.996Z,99.90
2018-04-16T01:43:17.956Z,99.90
2018-04-16T01:45:58.588Z,99.90
2018-04-16T01:51:38.471Z,99.90
2018-04-16T01:54:19.902Z,99.90
2018-04-16T01:59:57.994Z,99.90
2018-04-16T02:02:38.772Z,99.90
2018-04-16T02:05:19.421Z,99.90
2018-04-16T02:08:00.225Z,99.90
2018-04-16T02:10:40.976Z,99.90
2018-04-16T02:13:21.683Z,99.90
2018-04-16T02:16:02.526Z,99.90
2018-04-16T02:18:43.221Z,99.90
2018-04-16T02:21:24.898Z,99.90
2018-04-16T02:24:05.770Z,99.90
2018-04-16T02:26:46.537Z,99.90
2018-04-16T02:29:27.517Z,99.90
2018-04-16T02:32:08.385Z,99.90
2018-04-16T02:34:49.091Z,99.90
2018-04-16T02:37:29.859Z,99.90
2018-04-16T02:40:10.321Z,99.90
2018-04-16T02:42:51.296Z,99.90
2018-04-16T02:45:34.762Z,99.90
2018-04-16T02:48:15.674Z,99.90
2018-04-16T02:50:56.563Z,99.90
2018-04-16T02:53:37.273Z,99.90
2018-04-16T02:56:18.125Z,99.90
2018-04-16T02:58:58.971Z,99.90
2018-04-16T03:01:52.379Z,99.90
2018-04-16T03:04:33.086Z,99.90
2018-04-16T03:07:13.953Z,99.90
2018-04-16T03:09:54.900Z,99.90
2018-04-16T03:12:36.525Z,99.90
2018-04-16T03:15:18.006Z,99.90
2018-04-16T03:21:01.763Z,99.90
2018-04-16T03:23:43.312Z,99.90
2018-04-16T03:26:23.844Z,99.90
2018-04-16T03:29:05.301Z,99.90
2018-04-16T03:31:46.793Z,99.90
2018-04-16T03:34:27.608Z,99.90
2018-04-16T03:37:08.090Z,99.90
2018-04-16T03:39:48.980Z,99.90
2018-04-16T03:42:29.808Z,99.90
2018-04-16T03:45:10.695Z,99.90
2018-04-16T03:47:51.375Z,99.90
2018-04-16T03:50:31.997Z,99.90
2018-04-16T03:53:12.845Z,99.90
2018-04-16T03:55:51.616Z,99.90
2018-04-16T03:58:26.760Z,99.90
2018-04-16T04:01:02.022Z,99.90
2018-04-16T04:03:37.155Z,99.90
2018-04-16T04:06:12.461Z,99.90
2018-04-16T04:08:47.660Z,99.90
2018-04-16T04:11:22.766Z,99.90
2018-04-16T04:13:58.520Z,99.90
2018-04-16T04:16:34.512Z,99.90
2018-04-16T04:19:09.567Z,99.90
2018-04-16T04:21:44.817Z,99.90
2018-04-16T04:24:38.549Z,99.90
2018-04-16T04:30:35.459Z,99.90
2018-04-16T04:33:10.605Z,99.90
2018-04-16T04:35:46.683Z,99.90
2018-04-16T04:38:21.968Z,99.90
2018-04-16T04:40:57.985Z,99.90
2018-04-16T04:43:33.063Z,99.90
2018-04-16T04:46:09.005Z,99.90
2018-04-16T04:48:44.050Z,99.90
2018-04-16T04:51:19.952Z,99.90
2018-04-16T04:53:55.885Z,99.90
2018-04-16T04:56:31.045Z,99.90
2018-04-16T04:59:07.115Z,99.90
2018-04-16T05:01:42.311Z,99.90
2018-04-16T05:04:18.292Z,99.90
2018-04-16T05:06:53.706Z,99.90
2018-04-16T05:09:33.873Z,99.90
2018-04-16T05:12:09.153Z,99.90
2018-04-16T05:14:45.177Z,99.90
2018-04-16T05:17:20.353Z,99.90
2018-04-16T05:19:55.641Z,99.90
2018-04-16T05:22:30.791Z,99.90
2018-04-16T05:25:05.957Z,99.90
2018-04-16T05:27:41.260Z,99.90
2018-04-16T05:30:16.603Z,99.90
2018-04-16T05:32:51.780Z,99.90
2018-04-16T05:35:27.118Z,99.90
2018-04-16T05:38:02.326Z,99.90
2018-04-16T05:40:37.664Z,99.90
2018-04-16T05:43:13.026Z,99.90
2018-04-16T05:45:48.196Z,99.90
2018-04-16T05:48:23.330Z,99.90
2018-04-16T05:50:59.374Z,99.90
2018-04-16T05:53:34.473Z,99.90
2018-04-16T05:56:10.237Z,99.90
2018-04-16T05:58:48.250Z,99.90
2018-04-16T06:01:23.359Z,99.90
2018-04-16T06:03:58.611Z,99.90
2018-04-16T06:06:33.727Z,99.90
2018-04-16T06:09:08.847Z,99.90
2018-04-16T06:11:47.595Z,99.90
2018-04-16T06:14:23.575Z,99.90
2018-04-16T06:17:03.543Z,99.90
2018-04-16T06:19:38.737Z,99.90
2018-04-16T06:22:22.659Z,99.90
2018-04-16T06:24:58.540Z,99.90
2018-04-16T06:27:35.154Z,99.90
2018-04-16T06:30:11.312Z,99.90
2018-04-16T06:32:46.673Z,99.90
2018-04-16T06:35:21.977Z,99.90
2018-04-16T06:37:58.133Z,99.90
2018-04-16T06:40:34.179Z,99.30
2018-04-16T06:43:09.367Z,99.60
2018-04-16T06:45:45.295Z,93.50
2018-04-16T06:48:20.363Z,93.40
2018-04-16T06:50:57.486Z,86.20
2018-04-16T06:53:32.657Z,79.70
2018-04-16T06:56:07.789Z,76.00
2018-04-16T06:58:42.900Z,70.70
2018-04-16T07:01:18.189Z,66.30
2018-04-16T07:03:53.403Z,65.00
2018-04-16T07:06:29.426Z,65.50
2018-04-16T07:09:04.735Z,65.40
2018-04-16T07:11:39.861Z,65.70
2018-04-16T07:14:15.865Z,66.20
2018-04-16T07:16:51.222Z,67.10
2018-04-16T07:19:27.192Z,63.20
2018-04-16T07:22:02.320Z,63.20
2018-04-16T07:24:38.252Z,60.40
2018-04-16T07:27:13.555Z,60.40
2018-04-16T07:29:48.855Z,54.00
2018-04-16T07:32:24.141Z,53.60
2018-04-16T07:34:59.379Z,55.40
2018-04-16T07:37:35.148Z,55.40
2018-04-16T07:40:10.472Z,55.70
2018-04-16T07:42:45.760Z,54.80
2018-04-16T07:45:20.839Z,51.10
2018-04-16T07:47:56.217Z,51.10
2018-04-16T07:50:31.357Z,52.40
2018-04-16T07:53:06.652Z,51.70
2018-04-16T07:55:41.818Z,48.20
2018-04-16T07:58:17.044Z,45.40
2018-04-16T08:00:52.361Z,44.90
2018-04-16T08:03:28.259Z,41.40
2018-04-16T08:06:03.456Z,41.40
2018-04-16T08:08:38.552Z,41.30
2018-04-16T08:11:13.743Z,41.30
2018-04-16T08:13:49.674Z,36.60
2018-04-16T08:16:25.680Z,38.70
2018-04-16T08:19:01.005Z,38.30
2018-04-16T08:21:36.369Z,39.00
2018-04-16T08:24:12.314Z,39.30
2018-04-16T08:26:48.210Z,37.90
2018-04-16T08:29:23.511Z,37.90
2018-04-16T08:31:58.892Z,39.00
2018-04-16T08:34:34.863Z,38.90
2018-04-16T08:37:10.779Z,37.90
2018-04-16T08:39:45.930Z,37.90
2018-04-16T08:42:21.204Z,37.10
2018-04-16T08:44:56.359Z,37.80
2018-04-16T08:47:31.599Z,37.90
2018-04-16T08:50:06.654Z,37.90
2018-04-16T08:52:42.553Z,40.30
2018-04-16T08:55:17.913Z,40.40
2018-04-16T08:57:53.144Z,40.50
2018-04-16T09:00:28.247Z,39.50
2018-04-16T09:03:03.491Z,42.00
2018-04-16T09:05:38.810Z,41.50
2018-04-16T09:08:14.083Z,41.10
2018-04-16T09:10:49.376Z,39.40
2018-04-16T09:13:24.734Z,41.20
2018-04-16T09:16:00.806Z,40.40
2018-04-16T09:18:35.958Z,40.40
2018-04-16T09:21:12.121Z,38.30
2018-04-16T09:23:47.361Z,37.60
2018-04-16T09:26:22.446Z,38.50
2018-04-16T09:28:57.761Z,38.40
2018-04-16T09:31:33.112Z,37.10
2018-04-16T09:34:08.466Z,37.90
2018-04-16T09:36:43.575Z,38.10
2018-04-16T09:39:18.896Z,38.10
2018-04-16T09:41:54.124Z,37.00
2018-04-16T09:44:29.401Z,36.80
2018-04-16T09:47:04.518Z,36.90
2018-04-16T09:49:40.489Z,37.50
2018-04-16T09:52:15.632Z,37.50
2018-04-16T09:54:50.828Z,36.90
2018-04-16T09:57:25.939Z,37.80
2018-04-16T10:00:01.292Z,38.60
2018-04-16T10:02:36.699Z,37.60
2018-04-16T10:05:11.934Z,38.30
2018-04-16T10:07:47.139Z,37.80
2018-04-16T10:10:22.366Z,39.60
2018-04-16T10:12:57.715Z,38.10
2018-04-16T10:15:33.066Z,38.30
2018-04-16T10:18:08.323Z,40.80
2018-04-16T10:20:44.324Z,43.90
2018-04-16T10:23:20.220Z,45.20
2018-04-16T10:25:55.405Z,45.20
2018-04-16T10:28:31.297Z,47.60
2018-04-16T10:31:07.251Z,48.00
2018-04-16T10:33:43.112Z,49.20
2018-04-16T10:36:18.361Z,49.40
2018-04-16T10:38:53.698Z,49.60
2018-04-16T10:41:28.877Z,48.60
2018-04-16T10:44:04.141Z,47.10
2018-04-16T10:46:39.399Z,45.60
2018-04-16T10:49:14.659Z,46.30
2018-04-16T10:51:50.588Z,42.90
2018-04-16T10:54:26.568Z,41.60
2018-04-16T10:57:01.813Z,41.60
2018-04-16T10:59:36.914Z,40.40
2018-04-16T11:02:12.883Z,39.00
2018-04-16T11:04:48.281Z,39.00
2018-04-16T11:07:23.451Z,39.00
2018-04-16T11:09:59.368Z,40.30
2018-04-16T11:12:34.496Z,40.20
2018-04-16T11:15:09.809Z,40.70
2018-04-16T11:17:45.027Z,41.20
2018-04-16T11:20:20.280Z,42.00
2018-04-16T11:22:55.623Z,39.80
2018-04-16T11:25:31.056Z,39.80
2018-04-16T11:28:06.959Z,41.40
2018-04-16T11:30:42.250Z,41.30
2018-04-16T11:33:17.655Z,42.80
2018-04-16T11:35:52.846Z,42.60
2018-04-16T11:38:28.819Z,40.40
2018-04-16T11:41:04.065Z,40.40
2018-04-16T11:43:39.990Z,36.60
2018-04-16T11:46:15.155Z,36.50
2018-04-16T11:48:51.263Z,36.70
2018-04-16T11:51:26.513Z,36.70
2018-04-16T11:54:01.796Z,36.60
2018-04-16T11:56:40.591Z,36.00
2018-04-16T11:59:15.851Z,37.00
2018-04-16T12:01:50.984Z,37.10
2018-04-16T12:04:27.082Z,37.60
2018-04-16T12:07:02.460Z,37.60
2018-04-16T12:09:37.613Z,36.00
2018-04-16T12:12:12.868Z,36.90
2018-04-16T12:14:48.808Z,36.30
2018-04-16T12:17:24.683Z,37.30
2018-04-16T12:19:59.749Z,37.30
2018-04-16T12:22:35.792Z,37.90
2018-04-16T12:25:10.985Z,37.80
2018-04-16T12:27:46.515Z,36.30
2018-04-16T12:30:21.693Z,39.10
2018-04-16T12:32:57.005Z,37.80
2018-04-16T12:35:32.376Z,36.70
2018-04-16T12:38:08.566Z,35.20
2018-04-16T12:40:44.534Z,36.20
2018-04-16T12:43:19.617Z,36.20
2018-04-16T12:45:55.714Z,35.10
2018-04-16T12:48:30.844Z,35.10
2018-04-16T12:51:05.994Z,31.80
2018-04-16T12:53:41.299Z,32.20
2018-04-16T12:56:16.661Z,32.10
2018-04-16T12:58:51.834Z,31.20
2018-04-16T13:01:27.166Z,29.80
2018-04-16T13:04:02.472Z,30.50
2018-04-16T13:06:38.413Z,30.30
2018-04-16T13:09:13.818Z,29.20
2018-04-16T13:11:48.901Z,30.00
2018-04-16T13:14:24.987Z,30.00
2018-04-16T13:17:00.135Z,29.90
2018-04-16T13:19:35.372Z,29.60
2018-04-16T13:22:10.662Z,27.80
2018-04-16T13:24:45.903Z,29.30
2018-04-16T13:27:21.153Z,31.00
2018-04-16T13:29:56.395Z,30.60
2018-04-16T13:32:32.338Z,32.50
2018-04-16T13:35:07.523Z,32.50
2018-04-16T13:37:42.808Z,32.20
2018-04-16T13:40:18.032Z,30.50
2018-04-16T13:42:53.288Z,30.00
2018-04-16T13:45:28.508Z,31.10
2018-04-16T13:48:03.726Z,32.50
2018-04-16T13:50:38.913Z,32.40
2018-04-16T13:53:14.018Z,30.60
2018-04-16T13:55:49.282Z,32.20
2018-04-16T13:58:24.640Z,32.20
2018-04-16T14:00:59.841Z,31.30
2018-04-16T14:03:35.099Z,31.20
2018-04-16T14:06:11.169Z,31.70
2018-04-16T14:08:46.557Z,31.60
2018-04-16T14:11:21.698Z,31.40
2018-04-16T14:13:56.870Z,32.20
2018-04-16T14:16:32.104Z,32.80
2018-04-16T14:19:07.360Z,34.00
2018-04-16T14:21:42.568Z,34.10
2018-04-16T14:24:17.850Z,34.50
2018-04-16T14:26:53.057Z,34.20
2018-04-16T14:29:28.309Z,34.20
2018-04-16T14:32:04.181Z,34.60
2018-04-16T14:34:40.195Z,32.90
2018-04-16T14:37:15.464Z,32.90
2018-04-16T14:39:50.829Z,34.50
2018-04-16T14:42:26.029Z,33.30
2018-04-16T14:45:01.296Z,34.40
2018-04-16T14:47:37.594Z,35.00
2018-04-16T14:50:13.591Z,35.80
2018-04-16T14:52:48.850Z,35.80
2018-04-16T14:55:24.246Z,33.60
2018-04-16T14:57:59.363Z,33.40
2018-04-16T15:00:34.532Z,33.80
2018-04-16T15:03:09.694Z,34.90
2018-04-16T15:05:44.944Z,34.30
2018-04-16T15:08:20.059Z,34.00
2018-04-16T15:10:56.073Z,34.10
2018-04-16T15:13:31.200Z,34.10
2018-04-16T15:16:06.406Z,33.90
2018-04-16T15:18:41.719Z,34.70
2018-04-16T15:21:17.670Z,33.70
2018-04-16T15:23:53.015Z,33.80
2018-04-16T15:26:28.188Z,34.00
2018-04-16T15:29:03.425Z,33.00
2018-04-16T15:31:38.645Z,32.60
2018-04-16T15:34:13.929Z,34.10
2018-04-16T15:36:49.176Z,35.20
2018-04-16T15:39:24.490Z,34.30
2018-04-16T15:42:00.421Z,34.10
2018-04-16T15:44:35.639Z,34.00
2018-04-16T15:47:10.926Z,33.40
2018-04-16T15:49:46.261Z,33.90
2018-04-16T15:52:21.571Z,34.90
2018-04-16T15:54:56.865Z,34.50
2018-04-16T15:57:32.896Z,33.50
2018-04-16T16:00:08.183Z,33.50
2018-04-16T16:02:43.503Z,34.10
2018-04-16T16:05:18.709Z,33.20
2018-04-16T16:07:53.972Z,33.20
2018-04-16T16:10:29.097Z,33.90
2018-04-16T16:13:04.356Z,34.50
2018-04-16T16:15:39.701Z,34.90
2018-04-16T16:18:15.649Z,33.00
2018-04-16T16:20:51.638Z,32.90
2018-04-16T16:23:26.840Z,32.90
2018-04-16T16:26:01.965Z,32.50
2018-04-16T16:28:38.002Z,34.30
2018-04-16T16:31:13.142Z,34.20
2018-04-16T16:33:48.383Z,34.30
2018-04-16T16:36:23.654Z,34.80
2018-04-16T16:38:58.887Z,35.40
2018-04-16T16:41:34.212Z,35.30
2018-04-16T16:44:09.469Z,35.50
2018-04-16T16:46:44.692Z,35.30
2018-04-16T16:49:19.948Z,35.90
2018-04-16T16:51:55.311Z,36.00
2018-04-16T16:54:30.596Z,35.60
2018-04-16T16:57:05.895Z,36.10
2018-04-16T16:59:41.209Z,36.50
2018-04-16T17:02:16.367Z,37.60
2018-04-16T17:04:51.680Z,37.40
2018-04-16T17:07:26.989Z,37.10
2018-04-16T17:10:02.232Z,36.30
2018-04-16T17:12:37.565Z,37.10
2018-04-16T17:15:12.649Z,36.00
2018-04-16T17:17:47.885Z,36.50
2018-04-16T17:20:26.215Z,36.90
2018-04-16T17:23:02.314Z,38.00
2018-04-16T17:25:37.415Z,38.00
2018-04-16T17:28:12.646Z,38.20
2018-04-16T17:30:47.932Z,38.70
2018-04-16T17:33:23.232Z,39.00
2018-04-16T17:35:59.235Z,39.50
2018-04-16T17:38:36.014Z,39.50
2018-04-16T17:41:12.950Z,40.90
2018-04-16T17:43:48.075Z,40.80
2018-04-16T17:46:24.204Z,41.40
2018-04-16T17:49:00.187Z,41.10
2018-04-16T17:51:35.499Z,41.20
2018-04-16T17:54:11.515Z,42.20
2018-04-16T17:56:46.826Z,42.00
2018-04-16T17:59:22.075Z,42.10
2018-04-16T18:01:57.629Z,43.00
2018-04-16T18:04:34.524Z,42.90
2018-04-16T18:07:13.412Z,42.80
2018-04-16T18:09:48.756Z,44.70
2018-04-16T18:12:23.878Z,43.70
2018-04-16T18:14:59.771Z,43.70
2018-04-16T18:17:35.748Z,43.80
2018-04-16T18:20:10.885Z,43.70
2018-04-16T18:22:46.864Z,44.80
2018-04-16T18:25:22.221Z,44.80
2018-04-16T18:27:58.208Z,44.10
2018-04-16T18:30:33.479Z,44.10
2018-04-16T18:33:08.719Z,45.20
2018-04-16T18:35:44.023Z,44.10
2018-04-16T18:38:19.882Z,44.80
2018-04-16T18:40:55.148Z,44.80
2018-04-16T18:43:37.340Z,45.50
2018-04-16T18:46:13.317Z,46.80
2018-04-16T18:48:49.323Z,46.50
2018-04-16T18:51:24.639Z,46.60
2018-04-16T18:53:59.985Z,46.80
2018-04-16T18:56:35.907Z,47.20
2018-04-16T18:59:13.096Z,47.20
2018-04-16T19:01:48.361Z,46.60
2018-04-16T19:04:23.719Z,47.30
2018-04-16T19:06:59.644Z,46.90
2018-04-16T19:09:34.857Z,46.90
2018-04-16T19:12:16.347Z,47.10
2018-04-16T19:14:51.658Z,47.70
2018-04-16T19:17:26.802Z,48.30
2018-04-16T19:20:02.013Z,48.70
2018-04-16T19:22:38.003Z,49.70
2018-04-16T19:25:13.238Z,50.40
2018-04-16T19:27:54.745Z,49.70
2018-04-16T19:30:29.963Z,49.70
2018-04-16T19:36:05.076Z,50.80
2018-04-16T19:38:40.222Z,50.90
2018-04-16T19:41:15.507Z,50.50
2018-04-16T19:43:50.560Z,50.70
2018-04-16T19:46:26.953Z,50.90
2018-04-16T19:49:09.086Z,51.30
2018-04-16T19:51:44.493Z,52.00
2018-04-16T19:54:19.738Z,51.40
2018-04-16T19:57:00.307Z,51.40
2018-04-16T19:59:35.502Z,52.20
2018-04-16T20:02:16.823Z,51.70
2018-04-16T20:04:52.103Z,51.60
2018-04-16T20:07:27.228Z,52.40
2018-04-16T20:10:02.375Z,52.70
2018-04-16T20:12:37.567Z,53.80
2018-04-16T20:15:12.690Z,53.80
2018-04-16T20:17:47.833Z,53.70
2018-04-16T20:20:23.270Z,53.60
2018-04-16T20:22:58.733Z,53.50
2018-04-16T20:25:34.989Z,53.50
2018-04-16T20:28:11.059Z,53.60
2018-04-16T20:30:46.153Z,54.00
2018-04-16T20:33:21.501Z,54.50
2018-04-16T20:35:57.574Z,54.70
2018-04-16T20:38:33.637Z,55.50
2018-04-16T20:41:08.971Z,55.10
2018-04-16T20:43:45.061Z,54.70
2018-04-16T20:46:20.375Z,55.90
2018-04-16T20:48:56.458Z,57.00
2018-04-16T20:51:32.811Z,58.40
2018-04-16T20:54:08.068Z,58.50
2018-04-16T20:56:44.097Z,59.50
2018-04-16T20:59:20.155Z,58.80
2018-04-16T21:01:55.415Z,58.80
2018-04-16T21:04:30.674Z,56.60
2018-04-16T21:07:05.939Z,58.80
2018-04-16T21:09:41.218Z,59.80
2018-04-16T21:12:16.473Z,60.00
2018-04-16T21:14:51.776Z,57.90
2018-04-16T21:17:26.961Z,57.70
2018-04-16T21:20:02.198Z,59.20
2018-04-16T21:22:37.529Z,59.20
2018-04-16T21:25:12.781Z,60.30
2018-04-16T21:27:48.740Z,58.60
2018-04-16T21:30:24.232Z,58.60
2018-04-16T21:33:03.281Z,59.30
2018-04-16T21:35:38.449Z,58.90
2018-04-16T21:38:14.510Z,57.60
2018-04-16T21:40:49.698Z,57.00
2018-04-16T21:43:24.944Z,57.30
2018-04-16T21:46:00.047Z,55.70
2018-04-16T21:48:35.139Z,56.30
2018-04-16T21:51:10.493Z,56.10
2018-04-16T21:53:45.638Z,56.70
2018-04-16T21:56:20.961Z,56.10
2018-04-16T21:58:56.198Z,55.80
2018-04-16T22:01:31.404Z,55.90
2018-04-16T22:04:06.624Z,55.70
2018-04-16T22:06:41.700Z,56.40
2018-04-16T22:09:16.995Z,56.00
2018-04-16T22:11:52.149Z,56.40
2018-04-16T22:14:28.063Z,57.60
2018-04-16T22:17:03.232Z,57.60
2018-04-16T22:19:40.093Z,59.30
2018-04-16T22:22:15.349Z,59.30
2018-04-16T22:24:50.707Z,59.10
2018-04-16T22:27:26.719Z,59.40
2018-04-16T22:30:05.343Z,59.40
2018-04-16T22:32:41.403Z,59.20
2018-04-16T22:35:16.781Z,59.20
2018-04-16T22:37:51.966Z,61.10
2018-04-16T22:40:27.143Z,62.90
2018-04-16T22:43:02.363Z,64.50
2018-04-16T22:45:37.477Z,61.90
2018-04-16T22:48:19.483Z,62.00
2018-04-16T22:50:55.674Z,61.50
2018-04-16T22:53:31.010Z,61.50
2018-04-16T22:56:07.148Z,64.20
2018-04-16T22:58:42.985Z,64.20
2018-04-16T23:01:18.170Z,65.00
2018-04-16T23:03:54.145Z,62.80
2018-04-16T23:06:30.080Z,65.20
2018-04-16T23:09:05.934Z,65.10
2018-04-16T23:11:41.122Z,63.80
2018-04-16T23:14:16.976Z,64.90
2018-04-16T23:16:53.060Z,64.80
2018-04-16T23:19:28.338Z,64.80
2018-04-16T23:22:04.398Z,65.10
2018-04-16T23:24:40.323Z,65.20
2018-04-16T23:27:15.641Z,65.00
2018-04-16T23:29:51.478Z,65.50
2018-04-16T23:32:27.496Z,67.40
2018-04-16T23:35:02.645Z,67.60
2018-04-16T23:37:37.961Z,66.60
2018-04-16T23:40:13.264Z,66.00
2018-04-16T23:42:51.700Z,64.40
2018-04-16T23:45:27.054Z,63.50
2018-04-16T23:48:02.303Z,63.40
2018-04-16T23:50:37.409Z,63.30
2018-04-16T23:53:12.691Z,63.00
2018-04-16T23:55:48.617Z,62.90
2018-04-16T23:58:23.774Z,62.80
